createdAt,value
2023-03-29T00:00:31.329Z,29.84
2023-03-29T00:01:35.689Z,31.32
2023-03-29T00:02:32.389Z,31.46
2023-03-29T00:03:31.372Z,31.53
2023-03-29T00:04:31.411Z,31.90
2023-03-29T00:05:31.307Z,31.13
2023-03-29T00:06:31.298Z,32.77
2023-03-29T00:07:31.306Z,28.86
2023-03-29T00:08:31.316Z,29.83
2023-03-29T00:09:31.272Z,30.23
2023-03-29T00:10:31.278Z,27.66
2023-03-29T00:11:31.263Z,30.94
2023-03-29T00:12:31.252Z,27.77
2023-03-29T00:13:31.246Z,30.32
2023-03-29T00:14:31.290Z,31.49
2023-03-29T00:15:31.330Z,25.33
2023-03-29T00:16:31.266Z,28.66
2023-03-29T00:17:31.256Z,29.27
2023-03-29T00:18:31.204Z,30.05
2023-03-29T00:19:31.228Z,31.98
2023-03-29T00:20:31.191Z,32.87
2023-03-29T00:21:31.190Z,31.20
2023-03-29T00:22:31.211Z,30.70
2023-03-29T00:23:31.215Z,30.01
2023-03-29T00:24:31.229Z,29.48
2023-03-29T00:25:31.236Z,26.70
2023-03-29T00:26:31.258Z,26.70
2023-03-29T00:27:31.230Z,29.50
2023-03-29T00:28:31.264Z,28.85
2023-03-29T00:29:31.294Z,26.60
2023-03-29T00:30:31.261Z,29.59
2023-03-29T00:31:31.319Z,29.05
2023-03-29T00:32:31.361Z,28.77
2023-03-29T00:33:31.308Z,30.04
2023-03-29T00:34:31.313Z,29.11
2023-03-29T00:35:31.372Z,29.65
2023-03-29T00:36:31.341Z,28.37
2023-03-29T00:37:31.344Z,28.36
2023-03-29T00:38:31.370Z,31.59
2023-03-29T00:39:31.407Z,29.00
2023-03-29T00:40:31.393Z,30.60
2023-03-29T00:41:31.419Z,31.29
2023-03-29T00:42:31.462Z,31.02
2023-03-29T00:43:31.454Z,30.22
2023-03-29T00:44:31.452Z,27.57
2023-03-29T00:45:31.466Z,28.05
2023-03-29T00:46:31.568Z,30.98
2023-03-29T00:47:31.522Z,30.34
2023-03-29T00:48:31.527Z,32.38
2023-03-29T00:49:31.531Z,30.18
2023-03-29T00:50:31.546Z,32.89
2023-03-29T00:51:31.554Z,28.64
2023-03-29T00:52:31.574Z,28.45
2023-03-29T00:53:31.614Z,30.15
2023-03-29T00:54:31.593Z,32.72
2023-03-29T00:55:31.627Z,31.39
2023-03-29T00:56:31.637Z,30.22
2023-03-29T00:57:31.731Z,32.20
2023-03-29T00:58:31.650Z,32.03
2023-03-29T00:59:31.704Z,28.94
2023-03-29T01:00:31.757Z,30.64
2023-03-29T01:01:31.711Z,28.97
2023-03-29T01:02:31.767Z,32.26
2023-03-29T01:03:31.779Z,31.93
2023-03-29T01:04:31.717Z,29.74
2023-03-29T01:05:31.738Z,30.92
2023-03-29T01:06:31.781Z,30.80
2023-03-29T01:07:31.767Z,28.62
2023-03-29T01:08:31.821Z,31.37
2023-03-29T01:09:31.762Z,28.22
2023-03-29T01:10:31.778Z,31.42
2023-03-29T01:11:31.817Z,32.85
2023-03-29T01:12:31.841Z,31.12
2023-03-29T01:13:31.836Z,30.89
2023-03-29T01:14:31.836Z,27.96
2023-03-29T01:15:31.893Z,29.32
2023-03-29T01:16:31.896Z,28.48
2023-03-29T01:17:31.966Z,31.96
2023-03-29T01:18:31.871Z,27.68
2023-03-29T01:19:31.907Z,32.74
2023-03-29T01:20:31.896Z,32.24
2023-03-29T01:21:31.910Z,27.24
2023-03-29T01:22:31.947Z,31.38
2023-03-29T01:23:31.976Z,33.09
2023-03-29T01:24:31.981Z,31.86
2023-03-29T01:25:31.985Z,33.23
2023-03-29T01:26:31.990Z,31.23
2023-03-29T01:27:32.017Z,31.40
2023-03-29T01:28:32.035Z,30.60
2023-03-29T01:29:32.032Z,31.61
2023-03-29T01:30:32.041Z,30.16
2023-03-29T01:31:32.109Z,32.66
2023-03-29T01:32:32.119Z,31.71
2023-03-29T01:33:32.100Z,30.19
2023-03-29T01:34:32.107Z,27.72
2023-03-29T01:35:32.144Z,29.99
2023-03-29T01:36:32.124Z,29.78
2023-03-29T01:37:32.148Z,30.11
2023-03-29T01:38:32.139Z,30.93
2023-03-29T01:39:32.161Z,31.03
2023-03-29T01:40:32.256Z,30.72
2023-03-29T01:41:32.188Z,30.74
2023-03-29T01:42:32.212Z,30.64
2023-03-29T01:43:32.206Z,29.14
2023-03-29T01:44:32.216Z,29.12
2023-03-29T01:45:32.249Z,28.15
2023-03-29T01:46:32.346Z,28.91
2023-03-29T01:47:32.370Z,31.97
2023-03-29T01:48:32.311Z,28.83
2023-03-29T01:49:32.325Z,28.99
2023-03-29T01:50:32.368Z,31.65
2023-03-29T01:51:32.368Z,30.41
2023-03-29T01:52:32.388Z,31.83
2023-03-29T01:53:32.436Z,30.88
2023-03-29T01:54:32.428Z,29.58
2023-03-29T01:55:32.425Z,29.53
2023-03-29T01:56:32.463Z,27.73
2023-03-29T01:57:32.522Z,30.05
2023-03-29T01:58:32.530Z,30.58
2023-03-29T01:59:32.521Z,31.72
2023-03-29T02:00:32.546Z,25.00
2023-03-29T02:01:32.717Z,32.96
2023-03-29T02:02:32.642Z,32.03
2023-03-29T02:03:32.669Z,32.59
2023-03-29T02:04:32.650Z,32.34
2023-03-29T02:05:32.650Z,32.35
2023-03-29T02:06:32.676Z,33.87
2023-03-29T02:07:32.697Z,30.99
2023-03-29T02:08:32.731Z,31.30
2023-03-29T02:09:32.763Z,29.51
2023-03-29T02:10:32.778Z,30.28
2023-03-29T02:11:32.771Z,30.20
2023-03-29T02:12:32.753Z,30.89
2023-03-29T02:13:32.826Z,30.93
2023-03-29T02:14:32.844Z,31.47
2023-03-29T02:15:32.867Z,29.68
2023-03-29T02:16:32.868Z,28.60
2023-03-29T02:17:32.926Z,31.27
2023-03-29T02:18:32.925Z,28.38
2023-03-29T02:19:32.949Z,32.39
2023-03-29T02:20:33.009Z,31.71
2023-03-29T02:21:32.990Z,28.35
2023-03-29T02:22:32.996Z,29.84
2023-03-29T02:23:33.018Z,30.46
2023-03-29T02:24:33.053Z,31.34
2023-03-29T02:25:33.081Z,30.64
2023-03-29T02:26:33.094Z,30.09
2023-03-29T02:27:33.086Z,26.90
2023-03-29T02:28:33.141Z,30.17
2023-03-29T02:29:33.151Z,29.53
2023-03-29T02:30:33.176Z,30.23
2023-03-29T02:31:33.272Z,28.69
2023-03-29T02:32:33.242Z,29.56
2023-03-29T02:33:33.258Z,28.00
2023-03-29T02:34:33.287Z,27.99
2023-03-29T02:35:33.369Z,28.58
2023-03-29T02:36:33.354Z,29.95
2023-03-29T02:37:33.364Z,27.52
2023-03-29T02:38:33.364Z,28.60
2023-03-29T02:39:33.396Z,26.77
2023-03-29T02:40:33.432Z,28.48
2023-03-29T02:41:33.435Z,29.18
2023-03-29T02:42:33.474Z,26.95
2023-03-29T02:43:33.475Z,26.09
2023-03-29T02:44:33.506Z,27.22
2023-03-29T02:45:33.532Z,27.75
2023-03-29T02:46:33.546Z,28.48
2023-03-29T02:47:33.611Z,28.97
2023-03-29T02:48:33.594Z,30.61
2023-03-29T02:49:33.602Z,27.98
2023-03-29T02:50:33.637Z,29.03
2023-03-29T02:51:33.664Z,29.60
2023-03-29T02:52:33.691Z,30.00
2023-03-29T02:53:33.694Z,27.77
2023-03-29T02:54:33.747Z,27.31
2023-03-29T02:55:33.747Z,27.20
2023-03-29T02:56:33.808Z,28.55
2023-03-29T02:57:33.811Z,29.14
2023-03-29T02:58:33.854Z,30.57
2023-03-29T02:59:33.853Z,29.18
2023-03-29T03:00:33.899Z,28.01
2023-03-29T03:01:33.953Z,29.87
2023-03-29T03:02:34.051Z,27.84
2023-03-29T03:03:34.141Z,29.49
2023-03-29T03:04:33.984Z,29.34
2023-03-29T03:05:33.997Z,27.55
2023-03-29T03:06:34.034Z,28.61
2023-03-29T03:07:34.066Z,27.54
2023-03-29T03:08:34.095Z,26.78
2023-03-29T03:09:34.136Z,26.45
2023-03-29T03:10:34.124Z,26.91
2023-03-29T03:11:34.155Z,26.99
2023-03-29T03:12:34.204Z,28.13
2023-03-29T03:13:34.227Z,27.57
2023-03-29T03:14:34.266Z,30.05
2023-03-29T03:15:34.264Z,28.36
2023-03-29T03:16:34.391Z,26.41
2023-03-29T03:17:34.364Z,26.12
2023-03-29T03:18:34.357Z,27.18
2023-03-29T03:19:34.355Z,27.84
2023-03-29T03:20:34.410Z,25.00
2023-03-29T03:21:34.429Z,29.18
2023-03-29T03:22:34.469Z,27.80
2023-03-29T03:23:34.511Z,27.61
2023-03-29T03:24:34.537Z,29.04
2023-03-29T03:25:34.595Z,29.92
2023-03-29T03:26:34.592Z,29.90
2023-03-29T03:27:34.641Z,28.25
2023-03-29T03:28:34.667Z,29.39
2023-03-29T03:29:34.689Z,28.11
2023-03-29T03:30:34.766Z,28.44
2023-03-29T03:31:34.799Z,28.65
2023-03-29T03:32:34.781Z,28.54
2023-03-29T03:33:34.819Z,28.29
2023-03-29T03:34:34.789Z,28.42
2023-03-29T03:35:34.876Z,27.86
2023-03-29T03:36:34.875Z,26.73
2023-03-29T03:37:34.889Z,26.94
2023-03-29T03:38:34.932Z,27.89
2023-03-29T03:39:34.961Z,27.25
2023-03-29T03:40:35.001Z,29.14
2023-03-29T03:41:35.001Z,26.33
2023-03-29T03:42:35.040Z,29.26
2023-03-29T03:43:35.073Z,26.41
2023-03-29T03:44:35.082Z,29.06
2023-03-29T03:45:35.159Z,28.56
2023-03-29T03:46:35.168Z,28.29
2023-03-29T03:47:35.225Z,28.31
2023-03-29T03:48:35.201Z,30.82
2023-03-29T03:49:35.242Z,29.70
2023-03-29T03:50:35.303Z,28.14
2023-03-29T03:51:35.276Z,29.50
2023-03-29T03:52:35.350Z,30.01
2023-03-29T03:53:35.366Z,29.26
2023-03-29T03:54:35.418Z,29.36
2023-03-29T03:55:35.419Z,27.66
2023-03-29T03:56:35.461Z,30.13
2023-03-29T03:57:35.505Z,29.12
2023-03-29T03:58:35.552Z,28.45
2023-03-29T03:59:35.566Z,30.27
2023-03-29T04:00:35.563Z,29.47
2023-03-29T04:01:35.688Z,29.62
2023-03-29T04:02:35.699Z,27.01
2023-03-29T04:03:35.741Z,29.81
2023-03-29T04:04:35.725Z,29.51
2023-03-29T04:05:35.757Z,28.87
2023-03-29T04:06:35.775Z,26.97
2023-03-29T04:07:35.823Z,27.55
2023-03-29T04:08:35.823Z,28.97
2023-03-29T04:09:35.877Z,26.11
2023-03-29T04:10:35.896Z,27.28
2023-03-29T04:11:35.899Z,25.88
2023-03-29T04:12:35.951Z,27.07
2023-03-29T04:13:35.958Z,27.62
2023-03-29T04:14:36.001Z,27.25
2023-03-29T04:15:36.048Z,27.75
2023-03-29T04:16:36.039Z,26.99
2023-03-29T04:17:36.153Z,25.36
2023-03-29T04:18:36.264Z,27.35
2023-03-29T04:19:36.126Z,27.20
2023-03-29T04:20:36.176Z,25.80
2023-03-29T04:21:36.195Z,28.64
2023-03-29T04:22:36.216Z,29.35
2023-03-29T04:23:36.286Z,30.15
2023-03-29T04:24:36.269Z,29.58
2023-03-29T04:25:36.300Z,30.22
2023-03-29T04:26:36.378Z,31.75
2023-03-29T04:27:36.367Z,27.33
2023-03-29T04:28:36.396Z,29.18
2023-03-29T04:29:36.417Z,30.73
2023-03-29T04:30:36.483Z,29.52
2023-03-29T04:31:36.549Z,28.33
2023-03-29T04:32:36.562Z,28.56
2023-03-29T04:33:36.580Z,29.15
2023-03-29T04:34:36.556Z,29.91
2023-03-29T04:35:36.636Z,30.61
2023-03-29T04:36:36.643Z,30.16
2023-03-29T04:37:36.672Z,29.89
2023-03-29T04:38:36.720Z,28.26
2023-03-29T04:39:37.317Z,30.81
2023-03-29T04:40:36.783Z,31.05
2023-03-29T04:41:36.801Z,29.39
2023-03-29T04:42:36.809Z,29.93
2023-03-29T04:43:37.846Z,29.84
2023-03-29T04:44:36.918Z,32.91
2023-03-29T04:45:36.812Z,31.38
2023-03-29T04:46:36.902Z,30.27
2023-03-29T04:47:36.850Z,30.24
2023-03-29T04:48:36.804Z,29.27
2023-03-29T04:49:36.794Z,30.79
2023-03-29T04:50:36.786Z,28.31
2023-03-29T04:51:36.794Z,29.17
2023-03-29T04:52:36.788Z,32.52
2023-03-29T04:53:36.770Z,28.87
2023-03-29T04:54:36.769Z,30.36
2023-03-29T04:55:36.769Z,30.21
2023-03-29T04:56:36.775Z,27.98
2023-03-29T04:57:36.748Z,28.38
2023-03-29T04:58:36.765Z,27.67
2023-03-29T04:59:36.735Z,29.56
2023-03-29T05:00:43.736Z,29.53
2023-03-29T05:01:36.778Z,30.02
2023-03-29T05:02:36.803Z,30.59
2023-03-29T05:03:36.712Z,30.54
2023-03-29T05:04:36.817Z,31.53
2023-03-29T05:05:36.725Z,32.53
2023-03-29T05:06:36.713Z,30.19
2023-03-29T05:07:36.698Z,31.04
2023-03-29T05:08:36.682Z,29.82
2023-03-29T05:09:36.690Z,29.98
2023-03-29T05:10:36.659Z,29.66
2023-03-29T05:11:36.660Z,30.86
2023-03-29T05:12:36.672Z,29.62
2023-03-29T05:13:36.673Z,31.84
2023-03-29T05:14:36.640Z,28.74
2023-03-29T05:15:36.666Z,31.21
2023-03-29T05:17:55.670Z,25.00
2023-03-29T05:18:55.634Z,25.00
2023-03-29T05:19:55.675Z,25.00
2023-03-29T05:20:55.700Z,25.00
2023-03-29T05:21:55.774Z,25.00
2023-03-29T05:22:55.823Z,26.70
2023-03-29T05:23:55.886Z,25.58
2023-03-29T05:24:55.897Z,26.72
2023-03-29T05:25:55.959Z,25.60
2023-03-29T05:26:55.993Z,26.83
2023-03-29T05:27:56.024Z,26.22
2023-03-29T05:28:56.096Z,26.14
2023-03-29T05:29:56.126Z,25.00
2023-03-29T05:30:56.154Z,28.10
2023-03-29T05:31:56.257Z,28.49
2023-03-29T05:32:56.265Z,37.38
2023-03-29T05:33:56.310Z,47.34
2023-03-29T05:34:56.323Z,56.15
2023-03-29T05:35:56.399Z,56.83
2023-03-29T05:36:56.384Z,56.24
2023-03-29T05:37:56.497Z,58.48
2023-03-29T05:38:56.516Z,63.03
2023-03-29T05:40:05.617Z,64.97
2023-03-29T05:40:57.547Z,65.17
2023-03-29T05:41:56.568Z,61.84
2023-03-29T05:42:56.580Z,57.83
2023-03-29T05:43:56.720Z,51.34
2023-03-29T05:44:56.608Z,48.86
2023-03-29T05:46:03.637Z,46.65
2023-03-29T05:46:57.581Z,47.13
2023-03-29T05:47:56.610Z,49.56
2023-03-29T05:48:56.771Z,50.86
2023-03-29T05:49:56.523Z,54.21
2023-03-29T05:50:56.517Z,60.72
2023-03-29T05:51:56.480Z,63.44
2023-03-29T05:52:56.516Z,64.53
2023-03-29T05:53:56.467Z,69.13
2023-03-29T05:54:56.464Z,69.80
2023-03-29T05:55:56.469Z,72.39
2023-03-29T05:56:56.509Z,75.73
2023-03-29T05:57:56.473Z,78.11
2023-03-29T05:58:56.440Z,80.84
2023-03-29T05:59:56.442Z,83.38
2023-03-29T06:00:56.446Z,85.74
2023-03-29T06:01:56.511Z,87.50
2023-03-29T06:03:01.316Z,89.98
2023-03-29T06:03:57.542Z,90.38
2023-03-29T06:04:56.758Z,92.12
2023-03-29T06:05:56.420Z,97.23
2023-03-29T06:06:56.372Z,104.97
2023-03-29T06:07:56.606Z,116.18
2023-03-29T06:08:56.348Z,118.97
2023-03-29T06:09:56.410Z,128.15
2023-03-29T06:10:56.333Z,132.26
2023-03-29T06:11:56.443Z,133.82
2023-03-29T06:12:56.381Z,136.38
2023-03-29T06:13:56.321Z,145.36
2023-03-29T06:14:56.298Z,147.80
2023-03-29T06:15:56.358Z,151.48
2023-03-29T06:16:56.330Z,155.98
2023-03-29T06:17:56.429Z,161.57
2023-03-29T06:18:56.299Z,165.04
2023-03-29T06:19:56.383Z,167.29
2023-03-29T06:20:56.320Z,168.61
2023-03-29T06:21:56.282Z,170.57
2023-03-29T06:22:56.298Z,174.38
2023-03-29T06:23:56.317Z,175.77
2023-03-29T06:24:56.771Z,180.78
2023-03-29T06:25:56.318Z,182.37
2023-03-29T06:26:56.266Z,185.13
2023-03-29T06:27:56.263Z,188.15
2023-03-29T06:28:56.267Z,191.80
2023-03-29T06:29:56.758Z,192.20
2023-03-29T06:30:56.466Z,196.54
2023-03-29T06:31:56.228Z,194.43
2023-03-29T06:32:56.293Z,201.21
2023-03-29T06:33:56.220Z,208.83
2023-03-29T06:34:56.200Z,231.02
2023-03-29T06:35:56.231Z,206.92
2023-03-29T06:36:56.197Z,205.48
2023-03-29T06:37:56.194Z,188.77
2023-03-29T06:38:56.212Z,188.64
2023-03-29T06:39:56.240Z,199.85
2023-03-29T06:40:56.158Z,203.79
2023-03-29T06:41:56.141Z,200.14
2023-03-29T06:42:56.181Z,200.87
2023-03-29T06:43:56.128Z,198.61
2023-03-29T06:44:56.307Z,203.21
2023-03-29T06:45:56.153Z,194.13
2023-03-29T06:46:56.173Z,188.91
2023-03-29T06:47:56.339Z,190.21
2023-03-29T06:48:56.215Z,187.81
2023-03-29T06:49:56.124Z,178.45
2023-03-29T06:50:56.111Z,180.78
2023-03-29T06:51:56.130Z,182.60
2023-03-29T06:52:56.127Z,179.96
2023-03-29T06:53:56.159Z,175.78
2023-03-29T06:54:56.162Z,175.79
2023-03-29T06:55:56.154Z,169.63
2023-03-29T06:56:56.193Z,167.25
2023-03-29T06:57:56.128Z,166.81
2023-03-29T06:58:56.145Z,167.32
2023-03-29T06:59:56.148Z,166.82
2023-03-29T07:00:56.132Z,164.61
2023-03-29T07:01:56.174Z,161.12
2023-03-29T07:02:56.242Z,158.63
2023-03-29T07:03:56.191Z,160.79
2023-03-29T07:04:56.246Z,152.84
2023-03-29T07:05:56.224Z,154.31
2023-03-29T07:06:56.206Z,151.97
2023-03-29T07:07:56.239Z,153.32
2023-03-29T07:08:56.237Z,154.76
2023-03-29T07:09:56.232Z,152.23
2023-03-29T07:10:56.258Z,151.58
2023-03-29T07:11:56.265Z,150.08
2023-03-29T07:12:56.338Z,150.35
2023-03-29T07:13:56.336Z,143.77
2023-03-29T07:14:56.754Z,141.48
2023-03-29T07:15:56.504Z,137.88
2023-03-29T07:16:56.398Z,130.15
2023-03-29T07:17:56.420Z,127.50
2023-03-29T07:18:56.471Z,126.06
2023-03-29T07:19:56.460Z,126.63
2023-03-29T07:20:56.500Z,122.95
2023-03-29T07:21:56.500Z,121.61
2023-03-29T07:22:56.541Z,121.06
2023-03-29T07:23:56.560Z,121.53
2023-03-29T07:24:56.561Z,120.90
2023-03-29T07:25:56.596Z,120.37
2023-03-29T07:27:04.243Z,117.36
2023-03-29T07:27:57.598Z,117.52
2023-03-29T07:28:56.571Z,117.65
2023-03-29T07:29:56.592Z,111.70
2023-03-29T07:30:56.590Z,115.00
2023-03-29T07:31:56.556Z,115.24
2023-03-29T07:32:56.628Z,117.02
2023-03-29T07:33:56.651Z,111.57
2023-03-29T07:34:56.572Z,111.02
2023-03-29T07:35:56.540Z,107.09
2023-03-29T07:36:56.546Z,108.32
2023-03-29T07:37:56.528Z,102.58
2023-03-29T07:38:56.538Z,110.15
2023-03-29T07:39:56.517Z,109.82
2023-03-29T07:40:56.498Z,107.06
2023-03-29T07:41:56.538Z,104.32
2023-03-29T07:42:56.537Z,110.01
2023-03-29T07:43:56.468Z,114.90
2023-03-29T07:44:56.762Z,112.56
2023-03-29T07:45:56.489Z,117.25
2023-03-29T07:46:56.482Z,117.21
2023-03-29T07:47:56.608Z,115.42
2023-03-29T07:48:56.533Z,119.33
2023-03-29T07:49:56.527Z,125.92
2023-03-29T07:50:56.517Z,128.50
2023-03-29T07:51:56.542Z,131.93
2023-03-29T07:52:56.564Z,138.57
2023-03-29T07:53:56.613Z,141.52
2023-03-29T07:54:56.608Z,142.39
2023-03-29T07:55:56.575Z,143.62
2023-03-29T07:56:56.668Z,142.29
2023-03-29T07:57:56.627Z,140.93
2023-03-29T07:58:56.631Z,144.63
2023-03-29T07:59:56.609Z,144.23
2023-03-29T08:00:56.641Z,146.19
2023-03-29T08:01:56.593Z,141.45
2023-03-29T08:02:56.735Z,141.85
2023-03-29T08:03:56.793Z,145.92
2023-03-29T08:04:56.705Z,146.02
2023-03-29T08:05:56.640Z,147.53
2023-03-29T08:06:56.948Z,148.64
2023-03-29T08:07:56.632Z,150.99
2023-03-29T08:08:56.655Z,151.73
2023-03-29T08:09:56.624Z,153.23
2023-03-29T08:10:56.652Z,157.50
2023-03-29T08:11:56.657Z,161.51
2023-03-29T08:12:56.621Z,158.26
2023-03-29T08:13:56.630Z,158.17
2023-03-29T08:14:56.658Z,160.71
2023-03-29T08:15:56.625Z,162.24
2023-03-29T08:16:56.716Z,163.74
2023-03-29T08:17:56.739Z,167.30
2023-03-29T08:18:56.756Z,163.92
2023-03-29T08:19:56.925Z,165.79
2023-03-29T08:20:56.651Z,161.62
2023-03-29T08:21:56.580Z,163.70
2023-03-29T08:22:56.824Z,170.91
2023-03-29T08:23:56.596Z,169.00
2023-03-29T08:24:56.609Z,168.38
2023-03-29T08:25:56.613Z,170.34
2023-03-29T08:26:57.268Z,172.49
2023-03-29T08:27:57.627Z,171.59
2023-03-29T08:28:56.717Z,174.55
2023-03-29T08:29:56.643Z,175.85
2023-03-29T08:30:56.677Z,178.43
2023-03-29T08:31:56.629Z,186.41
2023-03-29T08:32:56.668Z,186.34
2023-03-29T08:33:56.649Z,200.29
2023-03-29T08:34:56.795Z,227.70
2023-03-29T08:35:56.796Z,215.29
2023-03-29T08:36:56.616Z,226.82
2023-03-29T08:37:56.619Z,220.61
2023-03-29T08:38:56.623Z,225.45
2023-03-29T08:39:56.624Z,218.04
2023-03-29T08:40:56.623Z,218.16
2023-03-29T08:41:56.621Z,218.14
2023-03-29T08:42:56.597Z,214.15
2023-03-29T08:43:56.631Z,216.02
2023-03-29T08:44:56.642Z,213.25
2023-03-29T08:45:56.642Z,215.56
2023-03-29T08:46:56.640Z,215.98
2023-03-29T08:47:56.661Z,214.56
2023-03-29T08:48:56.669Z,212.46
2023-03-29T08:49:56.678Z,212.31
2023-03-29T08:50:56.613Z,216.71
2023-03-29T08:51:56.614Z,217.03
2023-03-29T08:52:56.634Z,220.82
2023-03-29T08:53:56.598Z,218.72
2023-03-29T08:54:56.702Z,229.43
2023-03-29T08:55:56.610Z,224.77
2023-03-29T08:56:56.681Z,225.87
2023-03-29T08:57:57.203Z,225.05
2023-03-29T08:58:56.633Z,228.77
2023-03-29T08:59:56.597Z,239.63
2023-03-29T09:00:56.611Z,242.10
2023-03-29T09:01:56.634Z,249.88
2023-03-29T09:02:56.722Z,246.47
2023-03-29T09:03:57.357Z,243.49
2023-03-29T09:04:56.628Z,243.41
2023-03-29T09:05:56.686Z,240.28
2023-03-29T09:06:56.662Z,250.00
2023-03-29T09:07:56.693Z,248.64
2023-03-29T09:08:56.730Z,246.26
2023-03-29T09:09:56.762Z,249.06
2023-03-29T09:10:56.766Z,247.58
2023-03-29T09:11:56.755Z,246.05
2023-03-29T09:12:56.936Z,247.46
2023-03-29T09:13:56.843Z,250.00
2023-03-29T09:14:57.294Z,244.13
2023-03-29T09:15:56.947Z,247.04
2023-03-29T09:16:56.856Z,249.35
2023-03-29T09:17:56.929Z,245.63
2023-03-29T09:18:56.893Z,246.71
2023-03-29T09:19:56.934Z,245.16
2023-03-29T09:20:56.963Z,241.26
2023-03-29T09:21:56.972Z,243.88
2023-03-29T09:22:56.900Z,244.82
2023-03-29T09:23:56.900Z,243.70
2023-03-29T09:24:56.881Z,247.49
2023-03-29T09:25:56.923Z,246.51
2023-03-29T09:26:56.889Z,249.24
2023-03-29T09:27:56.876Z,245.73
2023-03-29T09:28:56.870Z,246.40
2023-03-29T09:29:56.872Z,243.81
2023-03-29T09:30:57.291Z,242.26
2023-03-29T09:31:56.983Z,244.99
2023-03-29T09:32:56.939Z,243.88
2023-03-29T09:33:56.871Z,239.72
2023-03-29T09:34:56.904Z,236.92
2023-03-29T09:35:56.989Z,238.99
2023-03-29T09:36:56.907Z,238.75
2023-03-29T09:37:56.905Z,238.25
2023-03-29T09:38:56.920Z,236.18
2023-03-29T09:39:56.906Z,236.54
2023-03-29T09:40:57.378Z,233.46
2023-03-29T09:41:56.926Z,235.08
2023-03-29T09:42:56.932Z,231.31
2023-03-29T09:43:56.966Z,231.44
2023-03-29T09:44:56.943Z,229.55
2023-03-29T09:45:56.976Z,228.56
2023-03-29T09:46:56.963Z,228.18
2023-03-29T09:47:57.095Z,223.14
2023-03-29T09:48:56.967Z,226.47
2023-03-29T09:49:56.995Z,222.56
2023-03-29T09:50:56.987Z,222.09
2023-03-29T09:51:57.028Z,222.40
2023-03-29T09:52:57.025Z,218.41
2023-03-29T09:53:57.057Z,224.42
2023-03-29T09:54:57.044Z,220.98
2023-03-29T09:55:57.079Z,218.25
2023-03-29T09:56:57.190Z,220.48
2023-03-29T09:57:57.124Z,216.58
2023-03-29T09:58:57.128Z,217.93
2023-03-29T09:59:57.106Z,217.94
2023-03-29T10:00:57.406Z,218.53
2023-03-29T10:01:57.165Z,214.60
2023-03-29T10:02:57.243Z,215.47
2023-03-29T10:03:57.223Z,214.08
2023-03-29T10:04:57.934Z,211.58
2023-03-29T10:05:57.378Z,209.12
2023-03-29T10:06:57.193Z,206.75
2023-03-29T10:07:57.224Z,210.41
2023-03-29T10:08:57.221Z,208.79
2023-03-29T10:09:57.230Z,199.52
2023-03-29T10:10:57.227Z,202.68
2023-03-29T10:11:57.227Z,194.41
2023-03-29T10:12:57.277Z,198.94
2023-03-29T10:13:57.281Z,198.37
2023-03-29T10:14:57.314Z,200.25
2023-03-29T10:15:57.304Z,193.79
2023-03-29T10:16:57.394Z,197.63
2023-03-29T10:17:57.398Z,233.36
2023-03-29T10:18:57.335Z,247.67
2023-03-29T10:19:57.368Z,217.10
2023-03-29T10:20:57.448Z,202.82
2023-03-29T10:21:57.410Z,196.11
2023-03-29T10:22:57.419Z,209.18
2023-03-29T10:23:57.425Z,218.45
2023-03-29T10:24:57.428Z,221.31
2023-03-29T10:25:57.560Z,219.98
2023-03-29T10:26:57.445Z,217.23
2023-03-29T10:27:57.460Z,212.92
2023-03-29T10:28:57.588Z,210.79
2023-03-29T10:29:57.515Z,209.55
2023-03-29T10:30:57.912Z,212.97
2023-03-29T10:31:57.537Z,211.11
2023-03-29T10:32:57.581Z,211.28
2023-03-29T10:33:57.537Z,211.83
2023-03-29T10:34:57.616Z,211.42
2023-03-29T10:35:57.895Z,209.98
2023-03-29T10:36:57.561Z,206.45
2023-03-29T10:37:57.562Z,210.08
2023-03-29T10:38:57.565Z,207.17
2023-03-29T10:39:57.572Z,209.04
2023-03-29T10:40:57.595Z,209.22
2023-03-29T10:41:57.598Z,209.97
2023-03-29T10:42:57.589Z,207.78
2023-03-29T10:43:57.592Z,207.88
2023-03-29T10:44:57.645Z,208.94
2023-03-29T10:45:57.638Z,203.88
2023-03-29T10:46:57.643Z,203.30
2023-03-29T10:47:57.714Z,206.02
2023-03-29T10:48:57.631Z,205.17
2023-03-29T10:49:57.660Z,202.33
2023-03-29T10:50:57.856Z,200.40
2023-03-29T10:51:57.668Z,202.45
2023-03-29T10:52:57.666Z,199.66
2023-03-29T10:53:57.692Z,201.25
2023-03-29T10:54:57.671Z,200.46
2023-03-29T10:55:57.676Z,197.86
2023-03-29T10:56:57.812Z,196.51
2023-03-29T10:57:57.693Z,195.06
2023-03-29T10:58:57.711Z,198.11
2023-03-29T10:59:57.672Z,195.94
2023-03-29T11:00:57.686Z,193.85
2023-03-29T11:01:57.746Z,192.76
2023-03-29T11:02:57.740Z,190.38
2023-03-29T11:03:57.748Z,192.39
2023-03-29T11:04:57.700Z,190.55
2023-03-29T11:05:57.724Z,191.52
2023-03-29T11:06:57.718Z,190.62
2023-03-29T11:07:57.739Z,189.27
2023-03-29T11:08:57.702Z,187.08
2023-03-29T11:09:57.710Z,186.04
2023-03-29T11:10:57.759Z,186.39
2023-03-29T11:12:08.535Z,185.95
2023-03-29T11:12:58.725Z,186.08
2023-03-29T11:13:59.885Z,186.21
2023-03-29T11:14:57.708Z,184.64
2023-03-29T11:15:57.729Z,185.70
2023-03-29T11:16:57.704Z,179.37
2023-03-29T11:17:57.733Z,182.13
2023-03-29T11:18:57.706Z,181.48
2023-03-29T11:19:57.700Z,183.81
2023-03-29T11:20:57.856Z,181.55
2023-03-29T11:21:57.680Z,178.82
2023-03-29T11:22:57.690Z,177.35
2023-03-29T11:23:57.726Z,177.51
2023-03-29T11:24:57.799Z,176.02
2023-03-29T11:25:57.904Z,172.82
2023-03-29T11:26:57.753Z,173.05
2023-03-29T11:27:57.730Z,164.48
2023-03-29T11:28:57.728Z,159.86
2023-03-29T11:29:57.743Z,162.78
2023-03-29T11:30:57.983Z,157.66
2023-03-29T11:31:57.827Z,161.80
2023-03-29T11:32:57.782Z,159.37
2023-03-29T11:33:57.745Z,165.33
2023-03-29T11:34:57.805Z,167.70
2023-03-29T11:35:57.852Z,169.05
2023-03-29T11:36:57.862Z,171.10
2023-03-29T11:37:57.773Z,165.70
2023-03-29T11:38:57.772Z,165.89
2023-03-29T11:39:57.744Z,167.93
2023-03-29T11:40:57.709Z,167.61
2023-03-29T11:41:57.757Z,170.11
2023-03-29T11:42:57.763Z,169.17
2023-03-29T11:43:57.759Z,168.16
2023-03-29T11:44:57.810Z,168.15
2023-03-29T11:45:57.755Z,168.52
2023-03-29T11:46:57.829Z,166.19
2023-03-29T11:47:57.790Z,166.79
2023-03-29T11:48:57.740Z,162.46
2023-03-29T11:49:57.755Z,163.76
2023-03-29T11:50:57.748Z,164.00
2023-03-29T11:51:57.764Z,163.80
2023-03-29T11:52:57.728Z,161.88
2023-03-29T11:53:57.720Z,160.19
2023-03-29T11:54:57.759Z,160.27
2023-03-29T11:55:57.762Z,159.27
2023-03-29T11:56:57.780Z,158.15
2023-03-29T11:57:57.744Z,159.86
2023-03-29T11:58:57.744Z,156.10
2023-03-29T11:59:57.710Z,155.89
2023-03-29T12:00:57.718Z,156.02
2023-03-29T12:01:57.712Z,158.72
2023-03-29T12:02:57.772Z,155.72
2023-03-29T12:03:57.740Z,157.02
2023-03-29T12:04:57.709Z,152.08
2023-03-29T12:05:57.718Z,155.53
2023-03-29T12:06:57.756Z,155.51
2023-03-29T12:07:57.665Z,152.54
2023-03-29T12:08:57.664Z,151.05
2023-03-29T12:09:57.740Z,150.30
2023-03-29T12:10:57.743Z,148.57
2023-03-29T12:11:57.755Z,147.29
2023-03-29T12:12:57.706Z,149.47
2023-03-29T12:13:57.731Z,151.61
2023-03-29T12:14:57.774Z,149.08
2023-03-29T12:15:57.761Z,148.01
2023-03-29T12:16:57.776Z,147.34
2023-03-29T12:17:57.778Z,142.93
2023-03-29T12:18:57.801Z,144.93
2023-03-29T12:19:57.846Z,144.86
2023-03-29T12:20:57.921Z,144.71
2023-03-29T12:21:57.909Z,144.28
2023-03-29T12:22:57.936Z,141.36
2023-03-29T12:23:57.988Z,147.12
2023-03-29T12:24:58.007Z,146.04
2023-03-29T12:25:58.123Z,144.52
2023-03-29T12:26:58.161Z,140.96
2023-03-29T12:27:58.175Z,139.19
2023-03-29T12:28:58.283Z,139.18
2023-03-29T12:29:58.311Z,137.52
2023-03-29T12:30:58.408Z,138.28
2023-03-29T12:31:58.455Z,136.96
2023-03-29T12:32:58.496Z,137.21
2023-03-29T12:33:58.524Z,136.83
2023-03-29T12:34:58.579Z,136.99
2023-03-29T12:35:58.693Z,135.91
2023-03-29T12:36:58.692Z,139.65
2023-03-29T12:37:58.764Z,136.68
2023-03-29T12:38:58.775Z,136.23
2023-03-29T12:39:58.828Z,136.08
2023-03-29T12:40:58.851Z,136.57